Tiempo atmosférico en la estación meteorológica de Linares, Jaén (515 m.)



Fecha
DESCASC
Temp. máxima en grados centígrados (hora)
DESCASC
Temp. mínima en grados centígrados (hora)
DESCASC
Temp. media en grados centígrados
DESCASC
Racha de viento máxima en m/sg (hora)
DESCASC
Velocidad máxima media en intervalos de 10 minutos(hora)
DESCASC
Precipitaciones diarias en mm
DESCASC
Precipitaciones de 00:00 a 06:00 en mm
DESCASC
Precipitaciones de 06:00 a 12:00 en mm
DESCASC
Precipitaciones de 12:00 a 18:00 en mm
DESCASC
Precipitaciones de 18:00 a 24:00 en mm
DESCASC
25-01-2020 9.6 (14:40) 7.7 (00:00) 8.7 3.89 (08:10) 2.22 (08:20) 14.4 0.8 5.8 3.4 4.4
18-01-2020 9.8 (15:00) 7.5 (00:00) 8.7 5.56 (23:50) 2.5 (10:30) 8.4 0 3.8 1.2 3.4
19-01-2020 9.9 (00:20) 4.1 (00:00) 7 12.5 (23:10) 6.67 (23:10) 2 0.4 0.4 0.6 0.6
24-01-2020 13.5 (15:10) 6.7 (00:00) 10.1 6.11 (22:10) 1.94 (00:10) 1.6 1 0.2 0 0.4
11-01-2020 12.8 (17:10) 3.4 (00:00) 8.1 8.06 (00:40) 2.78 (00:30) 0 0 0 0 0
23-01-2020 13.4 (15:50) 6.7 (00:00) 10 5.28 (23:10) 2.5 (23:10) 0 0 0 0 0
22-01-2020 13.1 (15:40) 5.1 (00:00) 9.1 5 (14:10) 2.22 (13:30) 0.8 0.8 0 0 0
21-01-2020 8.5 (15:50) 4.7 (00:00) 6.6 13.89 (02:20) 6.67 (09:50) 0 0 0 0 0
20-01-2020 8.7 (16:10) 2.8 (00:00) 5.7 16.67 (13:30) 8.61 (15:10) 0 0 0 0 0
17-01-2020 15.3 (16:20) 6.5 (00:00) 10.9 3.33 (13:00) 1.39 (12:10) 0 0 0 0 0
16-01-2020 16.6 (16:00) 5.1 (00:00) 10.9 5.28 (16:40) 2.22 (16:50) 0 0 0 0 0
15-01-2020 14.9 (16:40) 3.7 (00:00) 9.3 4.72 (16:40) 2.22 (17:00) 0 0 0 0 0
14-01-2020 11.4 (16:40) 2.1 (00:00) 6.7 4.72 (14:10) 2.22 (14:10) 0 0 0 0 0
13-01-2020 12.1 (16:00) 2.2 (00:00) 7.2 4.17 (15:20) 1.94 (09:30) 0 0 0 0 0
12-01-2020 13.7 (16:20) 2.3 (00:00) 8 3.06 (05:40) 2.22 (05:50) 0 0 0 0 0
27-12-2019 18.4 (15:50) 11.6 (00:00) 15 4.44 (04:00) 1.67 (21:30) 0 0 0 0 0
10-01-2020 12.4 (15:00) 5.8 (00:00) 9.1 8.89 (16:10) 4.44 (15:30) 0 0 0 0 0
09-01-2020 13.2 (16:30) 5.2 (00:00) 9.2 5.28 (13:00) 2.5 (13:00) 0 0 0 0 0
08-01-2020 17 (16:50) 5.3 (00:00) 11.2 4.17 (03:40) 2.78 (03:40) 0 0 0 0 0
07-01-2020 17.6 (16:40) 4.9 (00:00) 11.3 4.44 (06:20) 2.5 (06:20) 0 0 0 0 0
06-01-2020 13.8 (16:40) 4.2 (00:00) 9 2.78 (12:40) 1.39 (15:00) 0 0 0 0 0
05-01-2020 13.3 (16:20) 3.6 (00:00) 8.5 3.89 (11:30) 2.22 (21:30) 0 0 0 0 0
04-01-2020 11.3 (16:10) 4.3 (00:00) 7.8 6.11 (07:40) 2.22 (07:40) 0 0 0 0 0
03-01-2020 12.8 (16:20) 4.6 (00:00) 8.7 3.89 (22:10) 1.94 (22:10) 0 0 0 0 0
02-01-2020 15.4 (16:10) 5.1 (00:00) 10.2 2.78 (15:00) 1.67 (06:40) 0 0 0 0 0
01-01-2020 16.4 (16:00) 5.1 (00:00) 10.7 3.61 (05:10) 2.22 (05:10) 0 0 0 0 0
31-12-2019 15.3 (16:00) 4.8 (00:00) 10.1 3.61 (05:10) 2.22 (05:00) 0 0 0 0 0
30-12-2019 -- (--) -- (--) -- -- (--) -- (--) -- 0 0 0 --
29-12-2019 15.8 (16:00) 7.6 (00:00) 11.7 4.17 (06:50) 1.94 (06:50) 0 0 0 0 0
28-12-2019 20.8 (16:40) 9.1 (00:00) 14.9 4.44 (01:30) 2.22 (01:00) 0 0 0 0 0

Gráficas

Temp. máximas Temp. mínimas Temp. medias Precipitaciones Rachas de viento máximas Velocidades máximas media en intervalos de 10 minutos

Datos horarios

Fecha y hora oficial Temperatura (ºC) Velocidad del viento (km/h) Dirección del viento Racha (km/h) Dirección de racha Precipitación (mm) Presión (hPa) Tendencia (hPa) Humedad (%)
2020-01-25 23:00:00 8.1 2 Sudoeste 8 Oeste 1 -- -- 94
2020-01-25 22:00:00 8.1 2 Oeste 7 Oeste 2 -- -- 95
2020-01-25 21:00:00 8.1 2 Oeste 8 Noroeste 0.6 -- -- 94
2020-01-25 20:00:00 8.2 0 Calma 4 Nordeste 0.6 -- -- 93
2020-01-25 19:00:00 8.4 0 Calma 4 Nordeste 0.2 -- -- 93
2020-01-25 18:00:00 8.6 2 Nordeste 6 Noroeste 0.8 -- -- 93
2020-01-25 17:00:00 9.2 3 Oeste 7 Noroeste 1.8 -- -- 92
2020-01-25 16:00:00 9.5 0 Calma 6 Sudeste 0.4 -- -- 87
2020-01-25 15:00:00 9.6 2 Este 11 Sudeste 0 -- -- 84
2020-01-25 14:00:00 8.5 3 Este 13 Sudeste 0 -- -- 94
2020-01-25 13:00:00 8.2 4 Este 11 Sur 0.4 -- -- 94
2020-01-25 12:00:00 7.8 2 Sudeste 13 Sudeste 1.6 -- -- 93
2020-01-25 11:00:00 7.8 4 Sudeste 14 Sudeste 1.2 -- -- 94
2020-01-25 10:00:00 7.8 4 Sudeste 12 Sudeste 1 -- -- 93
2020-01-25 09:00:00 7.8 4 Sudeste 14 Sudeste 1.6 -- -- 93
2020-01-25 08:00:00 7.9 6 Sudeste 12 Sudeste 0.4 -- -- 92
2020-01-25 07:00:00 8.5 2 Este 4 Este 0 -- -- 87
2020-01-25 06:00:00 8.4 0 Calma 5 Nordeste 0 -- -- 89
2020-01-25 05:00:00 8.6 0 Calma 4 Sudeste 0.2 -- -- 87
2020-01-25 04:00:00 8.6 0 Calma 7 Nordeste 0 -- -- 87
2020-01-25 03:00:00 8.6 2 Nordeste 5 Nordeste 0 -- -- 87
2020-01-25 02:00:00 8.9 2 Nordeste 5 Nordeste 0.2 -- -- 86
2020-01-25 01:00:00 8.9 0 Calma 6 Oeste 0.4 -- -- 86
2020-01-25 00:00:00 9.2 0 Calma 5 Nordeste 0 -- -- 83
2020-01-24 23:00:00 9.3 0 Calma 22 Sudeste 0.4 -- -- 83
2020-01-24 22:00:00 10.8 4 Sudeste 10 Sudeste 0 -- -- 69
2020-01-24 21:00:00 10.9 4 Sudeste 10 Sudeste 0 -- -- 68
2020-01-24 20:00:00 11.4 0 Calma 10 Nordeste 0 -- -- 64
2020-01-24 19:00:00 11.5 5 Nordeste 10 Nordeste 0 -- -- 65
2020-01-24 18:00:00 12.1 2 Nordeste 4 Nordeste 0 -- -- 63
2020-01-24 17:00:00 13 0 Calma 10 Nordeste 0 -- -- 59
2020-01-24 16:00:00 13.3 2 Este 9 Sudeste 0 -- -- 59
2020-01-24 15:00:00 13.3 3 Sudeste 11 Sudeste 0 -- -- 60
2020-01-24 14:00:00 12.3 0 Calma 11 Sudeste 0 -- -- 61
2020-01-24 13:00:00 11.2 3 Este 10 Sudeste 0 -- -- 70
2020-01-24 12:00:00 10.1 3 Este 8 Sudeste 0 -- -- 77
2020-01-24 11:00:00 8.5 3 Este 9 Sudeste 0 -- -- 86
2020-01-24 10:00:00 7.3 0 Calma 5 Nordeste 0 -- -- 91
2020-01-24 09:00:00 6.9 0 Calma 8 Sudeste 0 -- -- 93
2020-01-24 08:00:00 6.8 0 Calma 12 Sudeste 0 -- -- 92
2020-01-24 07:00:00 7.1 0 Calma 6 Norte 0.2 -- -- 90
2020-01-24 06:00:00 7.3 0 Calma 5 Nordeste 0.4 -- -- 88
2020-01-24 05:00:00 7.3 3 Sur 4 Sur 0.4 -- -- 88
2020-01-24 04:00:00 7.7 2 Noroeste 6 Oeste 0.2 -- -- 83
2020-01-24 03:00:00 8.2 2 Oeste 5 Noroeste 0 -- -- 79
2020-01-24 02:00:00 8.8 0 Calma 9 Sudeste 0 -- -- 73
2020-01-24 01:00:00 8.8 4 Sudeste 15 Sudeste 0 -- -- 74
2020-01-24 00:00:00 9.2 8 Sudeste 19 Sudeste 0 -- -- 73
2020-01-23 23:00:00 9 8 Sudeste 17 Sudeste 0 -- -- 77
2020-01-23 22:00:00 9.2 8 Sudeste 18 Sudeste 0 -- -- 75
2020-01-23 21:00:00 9.1 2 Este 8 Sudeste 0 -- -- 73
2020-01-23 20:00:00 9.9 3 Norte 7 Norte 0 -- -- 69
2020-01-23 19:00:00 10.3 3 Noroeste 7 Noroeste 0 -- -- 69
2020-01-23 18:00:00 11.5 5 Oeste 12 Oeste 0 -- -- 65
2020-01-23 17:00:00 12.8 5 Noroeste 11 Noroeste 0 -- -- 59
2020-01-23 16:00:00 13.3 4 Nordeste 9 Norte 0 -- -- 57
2020-01-23 15:00:00 12.9 2 Este 14 Sudeste 0 -- -- 57
2020-01-23 14:00:00 12.7 5 Este 14 Sudeste 0 -- -- 59
2020-01-23 13:00:00 10.7 4 Este 12 Nordeste 0 -- -- 66
2020-01-23 12:00:00 9.6 4 Este 12 Este 0 -- -- 69
2020-01-23 11:00:00 8.7 5 Este 15 Sudeste 0 -- -- 72
2020-01-23 10:00:00 7.6 4 Este 11 Sudeste 0 -- -- 76
2020-01-23 09:00:00 6.8 2 Este 11 Sudeste 0 -- -- 77
2020-01-23 08:00:00 7.1 6 Sudeste 13 Sudeste 0 -- -- 75
2020-01-23 07:00:00 7.2 3 Este 10 Sudeste 0 -- -- 76
2020-01-23 06:00:00 7.1 3 Sudeste 12 Sudeste 0 -- -- 76
2020-01-23 05:00:00 7.2 4 Sudeste 10 Sudeste 0 -- -- 76
2020-01-23 04:00:00 7.1 3 Este 12 Sudeste 0 -- -- 75
2020-01-23 03:00:00 7 2 Este 9 Sudeste 0 -- -- 75
2020-01-23 02:00:00 7.2 2 Sudeste 12 Sudeste 0 -- -- 75
2020-01-23 01:00:00 7.8 3 Sudeste 8 Sudeste 0 -- -- 73
2020-01-23 00:00:00 8.7 0 Calma 4 Sudeste 0 -- -- 70
2020-01-22 23:00:00 8.8 0 Calma 5 Sur 0 -- -- 69
2020-01-22 22:00:00 8.9 0 Calma 6 Sudeste 0 -- -- 69
2020-01-22 21:00:00 9.2 0 Calma 10 Sudeste 0 -- -- 67
2020-01-22 20:00:00 9.5 6 Sudeste 13 Sudeste 0 -- -- 67
2020-01-22 19:00:00 10 4 Sudeste 11 Sudeste 0 -- -- 64
2020-01-22 18:00:00 10.5 4 Sudeste 10 Sudeste 0 -- -- 62
2020-01-22 17:00:00 12.3 5 Sudeste 11 Sudeste 0 -- -- 58
2020-01-22 16:00:00 12.9 2 Este 10 Sudeste 0 -- -- 56
2020-01-22 15:00:00 12.8 4 Este 18 Sudeste 0 -- -- 56
2020-01-22 14:00:00 11.9 5 Este 15 Nordeste 0 -- -- 60
2020-01-22 13:00:00 10.8 4 Sudeste 17 Nordeste 0 -- -- 65
2020-01-22 12:00:00 10 5 Este 12 Nordeste 0 -- -- 68
2020-01-22 11:00:00 8 4 Este 14 Nordeste 0 -- -- 77
2020-01-22 10:00:00 6.6 2 Este 7 Sudeste 0 -- -- 81
2020-01-22 09:00:00 5.3 0 Calma 8 Sudeste 0 -- -- 85
2020-01-22 08:00:00 6 3 Este 8 Nordeste 0 -- -- 83
2020-01-22 07:00:00 5.6 3 Sudeste 12 Sudeste 0 -- -- 86
2020-01-22 06:00:00 5.7 2 Este 8 Sudeste 0 -- -- 86
2020-01-22 05:00:00 5.8 0 Calma 9 Nordeste 0 -- -- 88
2020-01-22 04:00:00 6.1 2 Este 5 Este 0.2 -- -- 88
2020-01-22 03:00:00 5.9 0 Calma 5 Este 0 -- -- 89
2020-01-22 02:00:00 5.7 0 Calma 3 Este 0 -- -- 91
2020-01-22 01:00:00 5.6 0 Calma 4 Nordeste 0.6 -- -- 91
2020-01-22 00:00:00 5.6 0 Calma 5 Este 0 -- -- 88
2020-01-21 23:00:00 5.7 3 Este 8 Nordeste 0 -- -- 85
2020-01-21 22:00:00 6 3 Este 8 Nordeste 0 -- -- 80
2020-01-21 21:00:00 6.8 3 Este 10 Nordeste 0 -- -- 78
2020-01-21 20:00:00 7 0 Calma 6 Nordeste 0 -- -- 79
2020-01-21 19:00:00 7.6 6 Nordeste 8 Nordeste 0 -- -- 76
2020-01-21 18:00:00 8.2 4 Nordeste 7 Nordeste 0 -- -- 73
2020-01-21 17:00:00 8.4 0 Calma 19 Nordeste 0 -- -- 70
2020-01-21 16:00:00 8.5 6 Nordeste 16 Nordeste 0 -- -- 70
2020-01-21 15:00:00 7.9 7 Nordeste 23 Nordeste 0 -- -- 72
2020-01-21 14:00:00 6.9 11 Nordeste 25 Nordeste 0 -- -- 75
2020-01-21 13:00:00 7.1 10 Nordeste 28 Nordeste 0 -- -- 73
2020-01-21 12:00:00 6 13 Nordeste 38 Norte 0 -- -- 75
2020-01-21 11:00:00 5.6 14 Nordeste 48 Nordeste 0 -- -- 75
2020-01-21 10:00:00 4.9 18 Nordeste 40 Nordeste 0 -- -- 76
2020-01-21 09:00:00 4.7 16 Nordeste 46 Nordeste 0 -- -- 77
2020-01-21 08:00:00 5.6 14 Nordeste 32 Nordeste 0 -- -- 77
2020-01-21 07:00:00 5.2 8 Nordeste 17 Nordeste 0 -- -- 82
2020-01-21 06:00:00 5 8 Nordeste 21 Nordeste 0 -- -- 80
2020-01-21 05:00:00 4.9 3 Este 29 Nordeste 0 -- -- 78
2020-01-21 04:00:00 5.3 15 Nordeste 38 Nordeste 0 -- -- 76
2020-01-21 03:00:00 5.5 15 Nordeste 50 Nordeste 0 -- -- 76
2020-01-21 02:00:00 6.1 18 Nordeste 40 Nordeste 0 -- -- 73
2020-01-21 01:00:00 6.3 22 Nordeste 45 Nordeste 0 -- -- 71
2020-01-21 00:00:00 6.4 21 Nordeste 45 Nordeste 0 -- -- 72
2020-01-20 23:00:00 6.5 22 Nordeste 42 Nordeste 0 -- -- 72
2020-01-20 22:00:00 6.6 23 Nordeste 50 Nordeste 0 -- -- 71
2020-01-20 21:00:00 6.8 19 Nordeste 44 Nordeste 0 -- -- 70
2020-01-20 20:00:00 6.7 19 Nordeste 44 Norte 0 -- -- 70
2020-01-20 19:00:00 6.7 20 Nordeste 45 Nordeste 0 -- -- 71
2020-01-20 18:00:00 7.1 17 Nordeste 44 Nordeste 0 -- -- 68
2020-01-20 17:00:00 8 17 Nordeste 46 Nordeste 0 -- -- 62
2020-01-20 16:00:00 8.6 26 Nordeste 56 Nordeste 0 -- -- 59
2020-01-20 15:00:00 8.3 26 Nordeste 51 Nordeste 0 -- -- 61
2020-01-20 14:00:00 7.4 23 Nordeste 60 Nordeste 0 -- -- 64
2020-01-20 13:00:00 6.7 23 Nordeste 53 Nordeste 0 -- -- 64
2020-01-20 12:00:00 5.6 23 Nordeste 46 Nordeste 0 -- -- 66
2020-01-20 11:00:00 3.7 22 Nordeste 42 Nordeste 0 -- -- 68
2020-01-20 10:00:00 3.6 17 Nordeste 40 Nordeste 0 -- -- 64
2020-01-20 09:00:00 3.3 18 Nordeste 37 Nordeste 0 -- -- 61
2020-01-20 08:00:00 2.9 15 Nordeste 39 Nordeste 0 -- -- 65
2020-01-20 07:00:00 2.8 16 Nordeste 41 Nordeste 0 -- -- 66
2020-01-20 06:00:00 2.9 14 Nordeste 44 Nordeste 0 -- -- 66
2020-01-20 05:00:00 3.3 17 Nordeste 35 Nordeste 0 -- -- 63
2020-01-20 04:00:00 3.6 14 Nordeste 32 Nordeste 0 -- -- 61
2020-01-20 03:00:00 4 15 Nordeste 37 Nordeste 0 -- -- 61
2020-01-20 02:00:00 4.1 17 Nordeste 34 Nordeste 0 -- -- 64
2020-01-20 01:00:00 4.4 19 Nordeste 34 Nordeste 0 -- -- 73
2020-01-20 00:00:00 4.2 18 Nordeste 45 Nordeste 0 -- -- 78
2020-01-19 23:00:00 4.5 18 Nordeste 42 Nordeste 0 -- -- 79
2020-01-19 22:00:00 4.8 19 Nordeste 42 Nordeste 0 -- -- 80
2020-01-19 21:00:00 4.6 14 Nordeste 36 Nordeste 0.2 -- -- 83
2020-01-19 20:00:00 4.8 21 Nordeste 40 Nordeste 0.2 -- -- 85
2020-01-19 19:00:00 5.7 14 Nordeste 42 Nordeste 0.2 -- -- 82
2020-01-19 18:00:00 6.5 11 Nordeste 35 Nordeste 0 -- -- 79
2020-01-19 17:00:00 7.3 20 Norte 44 Norte 0 -- -- 74
2020-01-19 16:00:00 8.3 18 Norte 34 Norte 0 -- -- 67
2020-01-19 15:00:00 7.9 12 Norte 31 Nordeste 0 -- -- 74
2020-01-19 14:00:00 7.6 13 Norte 24 Norte 0 -- -- 77
2020-01-19 13:00:00 7.1 8 Noroeste 19 Noroeste 0.6 -- -- 87
2020-01-19 12:00:00 7.8 9 Norte 18 Noroeste 0.2 -- -- 82
2020-01-19 11:00:00 7.7 5 Noroeste 15 Norte 0 -- -- 85
2020-01-19 10:00:00 6.7 3 Oeste 5 Oeste 0.2 -- -- 94
2020-01-19 09:00:00 5.6 0 Calma 7 Noroeste 0 -- -- 94
2020-01-19 08:00:00 6.4 4 Oeste 8 Oeste 0 -- -- 95
2020-01-19 07:00:00 6.8 3 Noroeste 9 Oeste 0 -- -- 95
2020-01-19 06:00:00 7 3 Oeste 9 Oeste 0 -- -- 96
2020-01-19 05:00:00 7.5 3 Noroeste 19 Oeste 0.4 -- -- 96
2020-01-19 04:00:00 8 4 Sudoeste 24 Oeste 0 -- -- 96
2020-01-19 03:00:00 8.5 9 Oeste 23 Oeste 0 -- -- 97
2020-01-19 02:00:00 9.4 10 Oeste 22 Sudoeste 0 -- -- 96
2020-01-19 01:00:00 9.8 14 Oeste 29 Sudoeste 0 -- -- 96
2020-01-19 00:00:00 9.7 6 Sudoeste 20 Sudoeste 0.2 -- -- 96
2020-01-18 23:00:00 9.4 5 Noroeste 12 Noroeste 0.2 -- -- 96
2020-01-18 22:00:00 8.9 2 Sur 5 Sudeste 0.2 -- -- 95
2020-01-18 21:00:00 9 0 Calma 4 Nordeste 1.2 -- -- 95
2020-01-18 20:00:00 9 0 Calma 3 Nordeste 0.8 -- -- 95
2020-01-18 19:00:00 9 0 Calma 5 Sur 0.8 -- -- 94
2020-01-18 18:00:00 9 0 Calma 5 Norte 0.4 -- -- 94
2020-01-18 17:00:00 9.1 3 Noroeste 6 Noroeste 0.6 -- -- 94
2020-01-18 16:00:00 9.6 2 Oeste 14 Oeste 0.2 -- -- 89
2020-01-18 15:00:00 9.8 2 Oeste 7 Norte 0 -- -- 91
2020-01-18 14:00:00 9.2 3 Norte 6 Oeste 0 -- -- 93
2020-01-18 13:00:00 9.2 0 Calma 7 Sudeste 0 -- -- 92
2020-01-18 12:00:00 8.7 4 Sudeste 8 Sudeste 0 -- -- 93
2020-01-18 11:00:00 7.8 3 Norte 15 Sudeste 0.6 -- -- 93
2020-01-18 10:00:00 7.8 4 Sudeste 11 Sudeste 2.6 -- -- 92
2020-01-18 09:00:00 8 3 Sudeste 13 Sudeste 0.6 -- -- 90
2020-01-18 08:00:00 7.8 5 Sudeste 13 Sudeste 0 -- -- 88
2020-01-18 07:00:00 7.7 4 Sudeste 8 Sudeste 0 -- -- 87
2020-01-18 06:00:00 8 2 Sur 5 Sur 0 -- -- 86
2020-01-18 05:00:00 8 0 Calma 7 Sudeste 0 -- -- 86
2020-01-18 04:00:00 8.4 0 Calma 6 Noroeste 0 -- -- 84
2020-01-18 03:00:00 8 2 Norte 9 Sudeste 0 -- -- 85
2020-01-18 02:00:00 8.7 6 Sudeste 11 Sudeste 0 -- -- 83
2020-01-18 01:00:00 8.9 6 Sudeste 12 Sudeste 0 -- -- 84
2020-01-18 00:00:00 9.1 4 Sudeste 9 Sudeste 0 -- -- 82
2020-01-17 23:00:00 9.6 0 Calma 4 Sur 0 -- -- 78
2020-01-17 22:00:00 10.3 2 Sur 4 Sur 0 -- -- 75
2020-01-17 21:00:00 10.1 0 Calma 5 Sudeste 0 -- -- 77
2020-01-17 20:00:00 10.5 0 Calma 2 Norte 0 -- -- 75
2020-01-17 19:00:00 11.1 0 Calma 3 Sur 0 -- -- 72
2020-01-17 18:00:00 12.4 0 Calma 4 Sur 0 -- -- 68
2020-01-17 17:00:00 14 0 Calma 11 Sur 0 -- -- 62
2020-01-17 16:00:00 14.7 3 Sur 10 Oeste 0 -- -- 58
2020-01-17 15:00:00 14.3 3 Sudoeste 11 Oeste 0 -- -- 62
2020-01-17 14:00:00 12.6 3 Sudeste 11 Oeste 0 -- -- 68
2020-01-17 13:00:00 11.8 4 Sudoeste 12 Sudoeste 0 -- -- 66
2020-01-17 12:00:00 10.7 4 Oeste 10 Oeste 0 -- -- 63
2020-01-17 11:00:00 9.3 0 Calma 8 Oeste 0 -- -- 68
2020-01-17 10:00:00 8.6 0 Calma 3 Norte 0 -- -- 71
2020-01-17 09:00:00 7.5 0 Calma 0 Calma 0 -- -- 74
2020-01-17 08:00:00 6.8 3 Sudeste 7 Sudeste 0 -- -- 74
2020-01-17 07:00:00 7.9 0 Calma 6 Oeste 0 -- -- 71
2020-01-17 06:00:00 7.3 0 Calma 4 Sudeste 0 -- -- 73
2020-01-17 05:00:00 8.4 0 Calma 5 Oeste 0 -- -- 70
2020-01-17 04:00:00 8 0 Calma 5 Sur 0 -- -- 71
2020-01-17 03:00:00 7.9 0 Calma 9 Sudoeste 0 -- -- 67
2020-01-17 02:00:00 7.2 0 Calma 5 Sur 0 -- -- 68
2020-01-17 01:00:00 7.7 0 Calma 4 Sur 0 -- -- 67
2020-01-17 00:00:00 9.1 3 Sur 6 Sudoeste 0 -- -- 62
2020-01-16 23:00:00 9.4 0 Calma 6 Sur 0 -- -- 60
2020-01-16 22:00:00 9.4 2 Sur 5 Sur 0 -- -- 57
2020-01-16 21:00:00 9.7 3 Sur 6 Sur 0 -- -- 56
2020-01-16 20:00:00 10.5 3 Sur 6 Sur 0 -- -- 53
2020-01-16 19:00:00 11.4 3 Sudoeste 10 Sudoeste 0 -- -- 50
2020-01-16 18:00:00 13.1 2 Sudoeste 13 Oeste 0 -- -- 46
2020-01-16 17:00:00 15.9 6 Oeste 19 Oeste 0 -- -- 37
2020-01-16 16:00:00 16.6 5 Oeste 13 Oeste 0 -- -- 36
2020-01-16 15:00:00 15.8 3 Sudoeste 8 Oeste 0 -- -- 39
2020-01-16 14:00:00 13.4 4 Norte 9 Noroeste 0 -- -- 46
2020-01-16 13:00:00 11.7 4 Sudeste 12 Sudeste 0 -- -- 49
2020-01-16 12:00:00 10.6 4 Sudeste 13 Sudeste 0 -- -- 53
2020-01-16 11:00:00 8.9 2 Este 6 Este 0 -- -- 58
2020-01-16 10:00:00 7.2 2 Este 10 Sudeste 0 -- -- 66
2020-01-16 09:00:00 5.5 5 Sudeste 12 Sudeste 0 -- -- 75
2020-01-16 08:00:00 5.6 3 Este 6 Sudeste 0 -- -- 75
2020-01-16 07:00:00 5.8 3 Este 11 Sudeste 0 -- -- 76
2020-01-16 06:00:00 6.1 3 Este 7 Este 0 -- -- 75
2020-01-16 05:00:00 6.3 3 Sudeste 7 Sudeste 0 -- -- 76
2020-01-16 04:00:00 6.3 3 Sudeste 9 Sudeste 0 -- -- 75
2020-01-16 03:00:00 6.5 3 Sudeste 6 Sudeste 0 -- -- 75
2020-01-16 02:00:00 7.2 0 Calma 9 Sudeste 0 -- -- 71
2020-01-16 01:00:00 7.8 0 Calma 4 Sudeste 0 -- -- 70
2020-01-16 00:00:00 7.9 0 Calma 5 Sudeste 0 -- -- 69
2020-01-15 23:00:00 8.2 0 Calma 2 Sudeste 0 -- -- 70
2020-01-15 22:00:00 9 0 Calma 3 Sudoeste 0 -- -- 66
2020-01-15 21:00:00 9.6 0 Calma 3 Sudoeste 0 -- -- 63
2020-01-15 20:00:00 9.8 0 Calma 6 Oeste 0 -- -- 61
2020-01-15 19:00:00 10 0 Calma 9 Oeste 0 -- -- 60
2020-01-15 18:00:00 12.2 3 Oeste 12 Oeste 0 -- -- 54
2020-01-15 17:00:00 14.1 8 Oeste 17 Oeste 0 -- -- 47
2020-01-15 16:00:00 14.7 4 Sudoeste 11 Noroeste 0 -- -- 47
2020-01-15 15:00:00 14.1 4 Sudoeste 12 Oeste 0 -- -- 50
2020-01-15 14:00:00 12.9 2 Sudoeste 8 Noroeste 0 -- -- 57
2020-01-15 13:00:00 10.3 3 Oeste 5 Noroeste 0 -- -- 67
2020-01-15 12:00:00 8.7 4 Nordeste 8 Nordeste 0 -- -- 73
2020-01-15 11:00:00 7.2 2 Este 6 Nordeste 0 -- -- 75
2020-01-15 10:00:00 5.7 2 Este 8 Sudeste 0 -- -- 81
2020-01-15 09:00:00 4.6 0 Calma 3 Sudeste 0 -- -- 84
2020-01-15 08:00:00 4.2 0 Calma 10 Sudeste 0 -- -- 86
2020-01-15 07:00:00 3.9 5 Sudeste 8 Sudeste 0 -- -- 86
2020-01-15 06:00:00 3.9 2 Sudeste 9 Sudeste 0 -- -- 87
2020-01-15 05:00:00 4.1 3 Sudeste 8 Sudeste 0 -- -- 87
2020-01-15 04:00:00 3.9 0 Calma 7 Sudeste 0 -- -- 87
2020-01-15 03:00:00 4 0 Calma 6 Sudeste 0 -- -- 85
2020-01-15 02:00:00 5.7 2 Sur 4 Sudeste 0 -- -- 80
2020-01-15 01:00:00 5.1 0 Calma 2 Sur 0 -- -- 80
2020-01-15 00:00:00 5.2 3 Sudeste 6 Sudeste 0 -- -- 80
2020-01-14 23:00:00 6.1 0 Calma 2 Sur 0 -- -- 74
2020-01-14 22:00:00 6 0 Calma 3 Sudeste 0 -- -- 75
2020-01-14 21:00:00 6.8 0 Calma 4 Oeste 0 -- -- 71
2020-01-14 20:00:00 7.1 0 Calma 6 Sur 0 -- -- 69
2020-01-14 19:00:00 7.4 3 Sur 6 Sur 0 -- -- 69
2020-01-14 18:00:00 8.5 0 Calma 11 Oeste 0 -- -- 64
2020-01-14 17:00:00 10.7 5 Sudoeste 16 Oeste 0 -- -- 55
2020-01-14 16:00:00 10.6 3 Oeste 12 Oeste 0 -- -- 60
2020-01-14 15:00:00 10.8 5 Sudoeste 17 Oeste 0 -- -- 60
2020-01-14 14:00:00 9.6 7 Oeste 14 Sudoeste 0 -- -- 67
2020-01-14 13:00:00 8.3 4 Oeste 10 Oeste 0 -- -- 72
2020-01-14 12:00:00 6.8 3 Oeste 5 Oeste 0 -- -- 73
2020-01-14 11:00:00 5.2 0 Calma 9 Sudeste 0 -- -- 76
2020-01-14 10:00:00 3.9 5 Sudeste 10 Sudeste 0 -- -- 81
2020-01-14 09:00:00 2.1 4 Sudeste 8 Sudeste 0 -- -- 86
2020-01-14 08:00:00 2.6 3 Sudeste 6 Sudeste 0 -- -- 84
2020-01-14 07:00:00 2.6 3 Sudeste 8 Sudeste 0 -- -- 84
2020-01-14 06:00:00 3.1 2 Este 8 Sudeste 0 -- -- 84
2020-01-14 05:00:00 3.7 0 Calma 4 Nordeste 0 -- -- 81
2020-01-14 04:00:00 4 2 Sudeste 6 Sudeste 0 -- -- 79
2020-01-14 03:00:00 4.4 3 Sudeste 6 Sudeste 0 -- -- 77
2020-01-14 02:00:00 4.3 4 Sudeste 7 Sudeste 0 -- -- 78
2020-01-14 01:00:00 4.5 4 Sudeste 9 Sudeste 0 -- -- 79
2020-01-14 00:00:00 5 2 Sudeste 6 Sudeste 0 -- -- 77
2020-01-13 23:00:00 5.9 0 Calma 2 Noroeste 0 -- -- 72
2020-01-13 22:00:00 6.8 0 Calma 6 Sur 0 -- -- 68
2020-01-13 21:00:00 7.1 3 Sur 8 Sur 0 -- -- 68
2020-01-13 20:00:00 7 4 Sur 9 Sur 0 -- -- 67
2020-01-13 19:00:00 8 3 Sur 6 Sur 0 -- -- 63
2020-01-13 18:00:00 10 3 Oeste 10 Oeste 0 -- -- 57
2020-01-13 17:00:00 11.6 3 Sudoeste 14 Oeste 0 -- -- 49
2020-01-13 16:00:00 12.1 5 Oeste 15 Oeste 0 -- -- 49
2020-01-13 15:00:00 11.6 6 Oeste 15 Oeste 0 -- -- 52
2020-01-13 14:00:00 11.3 4 Oeste 11 Oeste 0 -- -- 54
2020-01-13 13:00:00 9.1 5 Noroeste 8 Noroeste 0 -- -- 61
2020-01-13 12:00:00 7.5 2 Oeste 6 Sudeste 0 -- -- 63
2020-01-13 11:00:00 6.4 0 Calma 6 Sudeste 0 -- -- 66
2020-01-13 10:00:00 4 0 Calma 12 Sudeste 0 -- -- 72
2020-01-13 09:00:00 2.5 3 Sudeste 9 Sudeste 0 -- -- 77
2020-01-13 08:00:00 3 0 Calma 4 Sudeste 0 -- -- 76
2020-01-13 07:00:00 3 0 Calma 6 Nordeste 0 -- -- 75
2020-01-13 06:00:00 3.6 0 Calma 11 Sudeste 0 -- -- 70
2020-01-13 05:00:00 4.3 0 Calma 6 Nordeste 0 -- -- 68
2020-01-13 04:00:00 3.7 0 Calma 5 Nordeste 0 -- -- 72
2020-01-13 03:00:00 4.2 3 Sudeste 8 Sudeste 0 -- -- 74
2020-01-13 02:00:00 5.2 3 Sudeste 8 Sudeste 0 -- -- 69
2020-01-13 01:00:00 6.4 2 Este 12 Sudeste 0 -- -- 66
2020-01-13 00:00:00 5.6 7 Sudeste 10 Sudeste 0 -- -- 78
2020-01-12 23:00:00 7 3 Sudeste 6 Sudeste 0 -- -- 70
2020-01-12 22:00:00 7.7 0 Calma 5 Nordeste 0 -- -- 66
2020-01-12 21:00:00 8.4 0 Calma 3 Nordeste 0 -- -- 62
2020-01-12 20:00:00 8.4 0 Calma 3 Noroeste 0 -- -- 61
2020-01-12 19:00:00 9 2 Oeste 5 Oeste 0 -- -- 60
2020-01-12 18:00:00 10.8 0 Calma 6 Sudeste 0 -- -- 58
2020-01-12 17:00:00 13.1 0 Calma 6 Sudeste 0 -- -- 48
2020-01-12 16:00:00 13.1 2 Oeste 8 Nordeste 0 -- -- 50
2020-01-12 15:00:00 12.2 2 Este 7 Nordeste 0 -- -- 56
2020-01-12 14:00:00 10.9 3 Norte 9 Nordeste 0 -- -- 59
2020-01-12 13:00:00 8.7 0 Calma 8 Sudeste 0 -- -- 65
2020-01-12 12:00:00 7.6 3 Sudeste 9 Sudeste 0 -- -- 67
2020-01-12 11:00:00 5.4 2 Este 10 Sudeste 0 -- -- 71
2020-01-12 10:00:00 4.4 5 Sudeste 11 Sudeste 0 -- -- 75
2020-01-12 09:00:00 2.8 6 Sudeste 9 Sudeste 0 -- -- 79
2020-01-12 08:00:00 2.9 3 Sudeste 8 Sudeste 0 -- -- 78
2020-01-12 07:00:00 3.4 2 Sudeste 11 Sudeste 0 -- -- 78
2020-01-12 06:00:00 3.2 7 Sudeste 11 Sudeste 0 -- -- 76
2020-01-12 05:00:00 4.5 0 Calma 6 Sudeste 0 -- -- 71
2020-01-12 04:00:00 4.8 3 Sudeste 8 Sudeste 0 -- -- 70
2020-01-12 03:00:00 5.5 2 Este 8 Sudeste 0 -- -- 67
2020-01-12 02:00:00 5.9 2 Este 10 Sudeste 0 -- -- 67
2020-01-12 01:00:00 6.4 3 Este 9 Sudeste 0 -- -- 66
2020-01-12 00:00:00 7.6 3 Este 4 Nordeste 0 -- -- 63
2020-01-11 23:00:00 7.9 2 Este 5 Este 0 -- -- 63
2020-01-11 22:00:00 8.3 0 Calma 2 Este 0 -- -- 63
2020-01-11 21:00:00 8.7 0 Calma 13 Nordeste 0 -- -- 63
2020-01-11 20:00:00 10.3 8 Nordeste 12 Nordeste 0 -- -- 57
2020-01-11 19:00:00 9.6 3 Sudeste 5 Sudeste 0 -- -- 56
2020-01-11 18:00:00 11.7 3 Este 7 Nordeste 0 -- -- 50
2020-01-11 17:00:00 12.7 0 Calma 14 Nordeste 0 -- -- 45
2020-01-11 16:00:00 12.3 6 Norte 16 Norte 0 -- -- 46
2020-01-11 15:00:00 12.5 4 Este 15 Nordeste 0 -- -- 48
2020-01-11 14:00:00 11.4 6 Nordeste 14 Sudeste 0 -- -- 49
2020-01-11 13:00:00 10.3 2 Este 13 Nordeste 0 -- -- 55
2020-01-11 12:00:00 9 7 Nordeste 17 Nordeste 0 -- -- 60
2020-01-11 11:00:00 6.3 3 Este 11 Sudeste 0 -- -- 67
2020-01-11 10:00:00 4.7 3 Este 9 Sudeste 0 -- -- 71
2020-01-11 09:00:00 3.7 2 Este 12 Sudeste 0 -- -- 73
2020-01-11 08:00:00 3.5 4 Este 15 Sudeste 0 -- -- 75
2020-01-11 07:00:00 3.6 3 Este 12 Sudeste 0 -- -- 74
2020-01-11 06:00:00 4 4 Sudeste 9 Sudeste 0 -- -- 72
2020-01-11 05:00:00 4.3 3 Este 12 Nordeste 0 -- -- 71
2020-01-11 04:00:00 5.6 4 Este 19 Nordeste 0 -- -- 65
2020-01-11 03:00:00 5.5 3 Este 14 Nordeste 0 -- -- 65
2020-01-11 02:00:00 7 5 Este 21 Nordeste 0 -- -- 59
2020-01-11 01:00:00 7.5 10 Este 29 Nordeste 0 -- -- 57
2020-01-11 00:00:00 7.7 7 Nordeste 22 Nordeste 0 -- -- 56
2020-01-10 23:00:00 7.9 9 Nordeste 19 Nordeste 0 -- -- 56
2020-01-10 22:00:00 8.8 9 Nordeste 30 Nordeste 0 -- -- 53
2020-01-10 21:00:00 8.9 8 Nordeste 24 Norte 0 -- -- 52
2020-01-10 20:00:00 9.2 13 Nordeste 24 Nordeste 0 -- -- 53
2020-01-10 19:00:00 9.7 7 Norte 24 Norte 0 -- -- 53
2020-01-10 18:00:00 10.9 9 Nordeste 29 Nordeste 0 -- -- 47
2020-01-10 17:00:00 11.9 13 Nordeste 32 Norte 0 -- -- 44
2020-01-10 16:00:00 12.3 13 Norte 30 Norte 0 -- -- 45
2020-01-10 15:00:00 12.4 14 Norte 28 Norte 0 -- -- 44
2020-01-10 14:00:00 11.7 13 Norte 24 Norte 0 -- -- 51
2020-01-10 13:00:00 11.1 5 Este 23 Nordeste 0 -- -- 58
2020-01-10 12:00:00 9.7 6 Nordeste 15 Nordeste 0 -- -- 69
2020-01-10 11:00:00 8.4 3 Este 7 Este 0 -- -- 85
2020-01-10 10:00:00 7.2 0 Calma 5 Nordeste 0 -- -- 90
2020-01-10 09:00:00 6.6 0 Calma 2 Norte 0 -- -- 90
2020-01-10 08:00:00 6.5 0 Calma 5 Sudeste 0 -- -- 90
2020-01-10 07:00:00 6.3 0 Calma 6 Sudeste 0 -- -- 91
2020-01-10 06:00:00 6.2 2 Sudeste 6 Sudeste 0 -- -- 90
2020-01-10 05:00:00 6.7 0 Calma -- -- 0 -- -- 90
2020-01-10 04:00:00 6.5 0 Calma 4 Sudeste 0 -- -- 91
2020-01-10 03:00:00 5.9 0 Calma 4 Sudeste 0 -- -- 91
2020-01-10 02:00:00 6 0 Calma 4 Sur 0 -- -- 90
2020-01-10 01:00:00 6.1 3 Sur 7 Sur 0 -- -- 90
2020-01-10 00:00:00 6.4 4 Sur 8 Sur 0 -- -- 90
2020-01-09 23:00:00 6.6 0 Calma 6 Oeste 0 -- -- 86
2020-01-09 22:00:00 7.9 4 Oeste 13 Oeste 0 -- -- 81
2020-01-09 21:00:00 8.6 2 Sudoeste 9 Sudoeste 0 -- -- 79
2020-01-09 20:00:00 8.9 2 Sur 8 Oeste 0 -- -- 79
2020-01-09 19:00:00 9.6 4 Oeste 10 Oeste 0 -- -- 72
2020-01-09 18:00:00 11 0 Calma 15 Oeste 0 -- -- 66
2020-01-09 17:00:00 12.9 5 Oeste 14 Oeste 0 -- -- 56
2020-01-09 16:00:00 13 5 Oeste 16 Oeste 0 -- -- 58
2020-01-09 15:00:00 13 5 Sudoeste 16 Noroeste 0 -- -- 59
2020-01-09 14:00:00 11.7 8 Oeste 17 Oeste 0 -- -- 62
2020-01-09 13:00:00 10.3 9 Oeste 19 Oeste 0 -- -- 66
2020-01-09 12:00:00 8.8 3 Oeste 6 Oeste 0 -- -- 71
2020-01-09 11:00:00 8 0 Calma 8 Sudeste 0 -- -- 67
2020-01-09 10:00:00 6.5 0 Calma 3 Oeste 0 -- -- 72
2020-01-09 09:00:00 5.3 0 Calma 3 Oeste 0 -- -- 76
2020-01-09 08:00:00 5.7 0 Calma 3 Oeste 0 -- -- 73
2020-01-09 07:00:00 6.5 0 Calma 5 Sudeste 0 -- -- 70
2020-01-09 06:00:00 6.9 4 Sudeste 6 Sudeste 0 -- -- 69
2020-01-09 05:00:00 7.5 0 Calma 4 Este 0 -- -- 66
2020-01-09 04:00:00 8.1 3 Sudeste 6 Sudeste 0 -- -- 64
2020-01-09 03:00:00 8.5 0 Calma 6 Sudeste 0 -- -- 62
2020-01-09 02:00:00 9.1 4 Sudeste 9 Sudeste 0 -- -- 60
2020-01-09 01:00:00 9.9 2 Este 6 Sudeste 0 -- -- 57
2020-01-09 00:00:00 10.2 0 Calma 4 Nordeste 0 -- -- 56
2020-01-08 23:00:00 10.3 2 Este 12 Sudeste 0 -- -- 59
2020-01-08 22:00:00 10.7 2 Sudeste 6 Sudeste 0 -- -- 60
2020-01-08 21:00:00 11.4 0 Calma 4 Sudeste 0 -- -- 56
2020-01-08 20:00:00 12 0 Calma 3 Nordeste 0 -- -- 55
2020-01-08 19:00:00 12.1 0 Calma 4 Oeste 0 -- -- 56
2020-01-08 18:00:00 13.8 0 Calma 4 Oeste 0 -- -- 53
2020-01-08 17:00:00 17 0 Calma 7 Noroeste 0 -- -- 43
2020-01-08 16:00:00 16.5 3 Noroeste 7 Oeste 0 -- -- 40
2020-01-08 15:00:00 15.9 3 Oeste 8 Noroeste 0 -- -- 39
2020-01-08 14:00:00 14.7 3 Sudeste 10 Sudeste 0 -- -- 43
2020-01-08 13:00:00 11.6 2 Sudeste 10 Sudeste 0 -- -- 48
2020-01-08 12:00:00 10.1 3 Nordeste 7 Este 0 -- -- 53
2020-01-08 11:00:00 8.2 3 Este 11 Sudeste 0 -- -- 53
2020-01-08 10:00:00 6.8 3 Este 9 Nordeste 0 -- -- 55
2020-01-08 09:00:00 6.8 4 Este 7 Este 0 -- -- 54
2020-01-08 08:00:00 5.6 2 Este 9 Sudeste 0 -- -- 60
2020-01-08 07:00:00 5.6 6 Sudeste 14 Sudeste 0 -- -- 63
2020-01-08 06:00:00 5.4 3 Este 9 Sudeste 0 -- -- 70
2020-01-08 05:00:00 6 0 Calma 11 Sudeste 0 -- -- 68
2020-01-08 04:00:00 5.8 4 Sudeste 15 Este 0 -- -- 72
2020-01-08 03:00:00 7.4 2 Este 11 Este 0 -- -- 66
2020-01-08 02:00:00 7.7 6 Sudeste 9 Sudeste 0 -- -- 68
2020-01-08 01:00:00 8.4 4 Sudeste 10 Sudeste 0 -- -- 63
2020-01-08 00:00:00 9.3 2 Este 5 Sudeste 0 -- -- 61
2020-01-07 23:00:00 9.8 0 Calma 6 Sudeste 0 -- -- 65
2020-01-07 22:00:00 9.8 3 Sudeste 6 Sudeste 0 -- -- 68
2020-01-07 21:00:00 10.2 0 Calma 3 Sudoeste 0 -- -- 67
2020-01-07 20:00:00 11.3 2 Oeste 4 Oeste 0 -- -- 61
2020-01-07 19:00:00 12 0 Calma 4 Oeste 0 -- -- 56
2020-01-07 18:00:00 13.5 0 Calma 6 Oeste 0 -- -- 56
2020-01-07 17:00:00 16.5 4 Oeste 9 Oeste 0 -- -- 47
2020-01-07 16:00:00 16.7 4 Oeste 8 Oeste 0 -- -- 43
2020-01-07 15:00:00 15.9 0 Calma 6 Nordeste 0 -- -- 42
2020-01-07 14:00:00 14.5 3 Este 10 Sudeste 0 -- -- 48
2020-01-07 13:00:00 11.8 4 Este 9 Nordeste 0 -- -- 57
2020-01-07 12:00:00 9.8 3 Nordeste 9 Nordeste 0 -- -- 62
2020-01-07 11:00:00 7.7 3 Este 12 Sudeste 0 -- -- 66
2020-01-07 10:00:00 6.4 4 Sudeste 12 Sudeste 0 -- -- 71
2020-01-07 09:00:00 6 3 Este 12 Nordeste 0 -- -- 72
2020-01-07 08:00:00 5.9 2 Este 4 Este 0 -- -- 73
2020-01-07 07:00:00 5.4 2 Este 16 Sudeste 0 -- -- 78
2020-01-07 06:00:00 5.3 4 Sudeste 11 Sudeste 0 -- -- 78
2020-01-07 05:00:00 6.5 4 Este 8 Este 0 -- -- 74
2020-01-07 04:00:00 5.5 2 Este 11 Sudeste 0 -- -- 82
2020-01-07 03:00:00 5.6 3 Sudeste 12 Sudeste 0 -- -- 82
2020-01-07 02:00:00 6.6 4 Sudeste 10 Sudeste 0 -- -- 79
2020-01-07 01:00:00 6.8 3 Sudeste 9 Sudeste 0 -- -- 78
2020-01-07 00:00:00 7.2 3 Sudeste 8 Sudeste 0 -- -- 77
2020-01-06 23:00:00 7.9 0 Calma 5 Norte 0 -- -- 75
2020-01-06 22:00:00 8.2 0 Calma 5 Norte 0 -- -- 70
2020-01-06 21:00:00 8.2 0 Calma 2 Sur 0 -- -- 71
2020-01-06 20:00:00 8.3 0 Calma 4 Oeste 0 -- -- 70
2020-01-06 19:00:00 9.1 0 Calma 4 Oeste 0 -- -- 66
2020-01-06 18:00:00 10.9 2 Oeste 8 Oeste 0 -- -- 64
2020-01-06 17:00:00 13.3 0 Calma 10 Noroeste 0 -- -- 58
2020-01-06 16:00:00 13.7 2 Sudoeste 8 Noroeste 0 -- -- 56
2020-01-06 15:00:00 12.4 5 Oeste 9 Oeste 0 -- -- 62
2020-01-06 14:00:00 11.6 2 Norte 9 Oeste 0 -- -- 71
2020-01-06 13:00:00 9 5 Oeste 10 Noroeste 0 -- -- 77
2020-01-06 12:00:00 7.9 3 Noroeste 6 Nordeste 0 -- -- 77
2020-01-06 11:00:00 6.9 2 Sudeste 7 Sudeste 0 -- -- 79
2020-01-06 10:00:00 5.8 0 Calma 4 Este 0 -- -- 84